Time;durP1;ratioP1;P1;durP2;ratioP2;P2;SDS_P1;SDS_P2;PMS_P1;PMS_P2;Temp;Humidity;BMP_temperature;BMP_pressure;BME280_temperature;BME280_humidity;BME280_pressure;Samples;Min_cycle;Max_cycle;Signal;HPM_P1;HPM_P2
2023/02/22 00:00:41;;;;;;;18.33;4.10;;;8.90;1.00;;;;;;5095155;28;20468;-62
2023/02/22 00:03:10;;;;;;;12.27;3.67;;;8.80;1.00;;;;;;5094752;28;20440;-62
2023/02/22 00:05:38;;;;;;;12.03;3.20;;;8.80;1.00;;;;;;5095097;28;20453;-63
2023/02/22 00:08:08;;;;;;;21.63;4.50;;;8.80;1.00;;;;;;5095154;28;20481;-62
2023/02/22 00:10:38;;;;;;;24.50;4.27;;;8.70;1.00;;;;;;5094971;28;20454;-63
2023/02/22 00:13:07;;;;;;;14.77;4.80;;;8.80;97.60;;;;;;5095035;28;20764;-64
2023/02/22 00:15:35;;;;;;;23.10;4.63;;;8.80;49.50;;;;;;5095120;28;20457;-63
2023/02/22 00:18:03;;;;;;;19.53;4.07;;;9.00;1.00;;;;;;5094734;28;20460;-65
2023/02/22 00:20:30;;;;;;;16.00;4.00;;;9.00;1.00;;;;;;5095035;28;20540;-65
2023/02/22 00:23:00;;;;;;;21.90;5.17;;;9.00;1.00;;;;;;5094511;28;20457;-63
2023/02/22 00:25:27;;;;;;;23.23;4.47;;;9.00;1.00;;;;;;5094561;28;20457;-64
2023/02/22 00:27:55;;;;;;;13.87;2.93;;;9.00;1.00;;;;;;5094741;28;20493;-63
2023/02/22 00:30:26;;;;;;;18.70;5.40;;;8.90;1.00;;;;;;5094490;28;20530;-63
2023/02/22 00:32:54;;;;;;;14.77;4.40;;;8.80;35.50;;;;;;5094939;28;20540;-63
2023/02/22 00:35:23;;;;;;;14.43;3.73;;;8.90;99.90;;;;;;5096743;28;20468;-63
2023/02/22 00:37:51;;;;;;;16.10;4.50;;;8.90;37.90;;;;;;5098629;28;20548;-63
2023/02/22 00:40:21;;;;;;;11.77;3.53;;;8.90;1.00;;;;;;5099248;28;20463;-64
2023/02/22 00:42:48;;;;;;;17.73;4.83;;;9.00;12.40;;;;;;5099284;28;20485;-64
2023/02/22 00:45:18;;;;;;;17.33;4.37;;;8.90;1.00;;;;;;5098733;28;20484;-64
2023/02/22 00:47:45;;;;;;;15.90;4.90;;;8.80;2.30;;;;;;5098334;28;20473;-65
2023/02/22 00:50:13;;;;;;;16.77;4.50;;;8.70;99.90;;;;;;5098348;28;20496;-62
2023/02/22 00:52:40;;;;;;;18.80;5.33;;;8.70;99.90;;;;;;5098135;28;20459;-63
2023/02/22 00:55:10;;;;;;;15.63;4.20;;;8.70;99.90;;;;;;5098622;28;20540;-64
2023/02/22 00:57:37;;;;;;;23.03;3.90;;;8.70;99.90;;;;;;5098901;28;20645;-64
2023/02/22 01:00:11;;;;;;;16.20;3.60;;;8.80;44.80;;;;;;5098394;28;20542;-64
2023/02/22 01:02:40;;;;;;;16.63;3.90;;;8.90;1.00;;;;;;5098604;28;20448;-63
2023/02/22 01:05:07;;;;;;;20.83;4.43;;;8.90;1.00;;;;;;5098526;28;20468;-64
2023/02/22 01:07:35;;;;;;;13.07;4.00;;;9.00;1.00;;;;;;5098922;28;20509;-63
2023/02/22 01:10:02;;;;;;;19.77;5.97;;;9.10;1.00;;;;;;5099224;28;20795;-63
2023/02/22 01:12:30;;;;;;;14.10;5.03;;;9.10;1.00;;;;;;5098153;28;20464;-64
2023/02/22 01:14:57;;;;;;;7.50;2.93;;;9.20;1.00;;;;;;5098374;28;20467;-63
2023/02/22 01:17:24;;;;;;;18.70;5.30;;;9.20;1.00;;;;;;5098467;28;20467;-63
2023/02/22 01:19:52;;;;;;;20.90;5.00;;;9.20;1.00;;;;;;5098120;28;20457;-64
2023/02/22 01:22:21;;;;;;;19.93;4.97;;;9.10;1.00;;;;;;5099143;28;20839;-62
2023/02/22 01:24:48;;;;;;;22.77;4.33;;;9.00;1.00;;;;;;5097870;28;20928;-63
2023/02/22 01:27:15;;;;;;;21.40;4.47;;;9.00;1.00;;;;;;5098175;28;20463;-63
2023/02/22 01:29:43;;;;;;;10.70;4.23;;;9.10;1.00;;;;;;5098318;28;20480;-63
2023/02/22 01:32:10;;;;;;;16.73;4.27;;;9.20;1.00;;;;;;5098732;28;20464;-63
2023/02/22 01:34:37;;;;;;;15.83;4.37;;;9.10;1.00;;;;;;5097588;28;20526;-63
2023/02/22 01:37:06;;;;;;;11.40;3.93;;;9.10;1.00;;;;;;5098175;28;20453;-62
2023/02/22 01:39:33;;;;;;;13.13;3.10;;;9.10;1.00;;;;;;5098059;28;20528;-63
2023/02/22 01:42:00;;;;;;;21.53;4.23;;;9.20;1.00;;;;;;5097314;28;20487;-63
2023/02/22 01:44:29;;;;;;;17.07;4.20;;;9.20;1.00;;;;;;5097915;28;20441;-64
2023/02/22 01:46:57;;;;;;;20.23;3.93;;;9.10;41.90;;;;;;5097668;28;20825;-63
2023/02/22 01:49:28;;;;;;;14.70;4.40;;;9.20;63.70;;;;;;5097506;28;20487;-63
2023/02/22 01:51:58;;;;;;;10.20;3.43;;;9.20;1.00;;;;;;5097880;28;20470;-62
2023/02/22 01:54:30;;;;;;;14.70;4.37;;;9.00;1.00;;;;;;5097510;28;20452;-63
2023/02/22 01:57:01;;;;;;;14.33;3.67;;;8.90;35.90;;;;;;5097516;28;20526;-63
2023/02/22 01:59:32;;;;;;;16.03;4.53;;;9.00;99.90;;;;;;5097392;28;20460;-63
2023/02/22 02:01:59;;;;;;;8.10;3.67;;;9.00;99.90;;;;;;5097364;28;20437;-64
2023/02/22 02:04:27;;;;;;;16.47;4.03;;;9.10;99.90;;;;;;5097074;28;20457;-62
2023/02/22 02:06:58;;;;;;;18.87;4.20;;;9.20;53.90;;;;;;5097222;28;20548;-63
2023/02/22 02:09:31;;;;;;;10.40;2.97;;;9.20;9.30;;;;;;5097129;28;20871;-64
2023/02/22 02:12:01;;;;;;;12.30;3.70;;;9.10;23.60;;;;;;5097134;28;20773;-63
2023/02/22 02:14:30;;;;;;;16.87;4.47;;;9.00;1.00;;;;;;5097104;28;20770;-62
2023/02/22 02:17:00;;;;;;;20.53;4.00;;;8.80;1.00;;;;;;5096702;28;20458;-61
2023/02/22 02:19:38;;;;;;;16.43;3.60;;;8.70;99.90;;;;;;5096861;28;20918;-62
2023/02/22 02:22:30;;;;;;;22.80;4.50;;;8.80;99.90;;;;;;5097584;28;20441;-63
2023/02/22 02:25:39;;;;;;;22.57;4.20;;;8.80;90.30;;;;;;5097045;28;20909;-62
2023/02/22 02:28:49;;;;;;;20.63;4.23;;;8.70;99.90;;;;;;5055466;28;20481;-63
2023/02/22 02:31:43;;;;;;;12.50;3.93;;;8.80;99.90;;;;;;5097201;28;20521;-62
2023/02/22 02:34:20;;;;;;;16.87;4.40;;;8.90;99.90;;;;;;5101396;28;20440;-64
2023/02/22 02:36:59;;;;;;;20.23;4.63;;;8.90;99.90;;;;;;5101915;28;20469;-63
2023/02/22 02:39:29;;;;;;;12.60;3.90;;;9.00;99.90;;;;;;5101934;28;20430;-64
2023/02/22 02:41:59;;;;;;;13.47;3.90;;;8.90;99.90;;;;;;5099699;28;20869;-61
2023/02/22 02:44:31;;;;;;;12.70;4.13;;;9.00;99.90;;;;;;5102904;28;20516;-63
2023/02/22 02:47:02;;;;;;;16.13;3.83;;;8.90;99.90;;;;;;5107630;28;20490;-64
2023/02/22 02:49:36;;;;;;;14.67;4.17;;;8.80;99.90;;;;;;5108134;28;20476;-63
2023/02/22 02:52:04;;;;;;;19.43;3.93;;;8.80;99.90;;;;;;5106872;28;20445;-63
2023/02/22 02:54:33;;;;;;;17.23;4.10;;;8.60;99.90;;;;;;5106552;28;20548;-63
2023/02/22 02:57:00;;;;;;;21.93;4.70;;;8.60;99.90;;;;;;5101007;28;20890;-63
2023/02/22 02:59:30;;;;;;;23.23;4.07;;;8.60;99.90;;;;;;5097737;28;20790;-63
2023/02/22 03:02:19;;;;;;;19.23;4.20;;;8.50;99.90;;;;;;5098308;28;20548;-64
2023/02/22 03:05:06;;;;;;;9.87;3.30;;;8.40;99.90;;;;;;5097127;28;20469;-62
2023/02/22 03:07:49;;;;;;;13.23;4.10;;;8.50;99.90;;;;;;5096110;28;20453;-63
2023/02/22 03:10:40;;;;;;;14.97;4.40;;;8.60;99.90;;;;;;5095841;28;20599;-62
2023/02/22 03:13:14;;;;;;;25.53;4.50;;;8.60;99.90;;;;;;5096377;28;20454;-62
2023/02/22 03:15:50;;;;;;;14.60;3.60;;;8.50;99.90;;;;;;5096276;28;20437;-64
2023/02/22 03:18:23;;;;;;;12.07;3.70;;;8.40;1.00;;;;;;5096408;28;20766;-62
2023/02/22 03:20:59;;;;;;;15.43;3.50;;;8.40;1.00;;;;;;5095910;28;20437;-63
2023/02/22 03:23:32;;;;;;;12.30;3.50;;;8.30;99.90;;;;;;5095903;28;20450;-64
2023/02/22 03:26:04;;;;;;;15.73;4.60;;;8.30;99.90;;;;;;5096217;28;20510;-63
2023/02/22 03:28:33;;;;;;;14.73;3.83;;;8.20;5.40;;;;;;5095507;28;20964;-64
2023/02/22 03:31:04;;;;;;;21.33;4.40;;;8.20;99.90;;;;;;5095533;28;20453;-64
2023/02/22 03:33:37;;;;;;;19.27;4.33;;;8.10;1.00;;;;;;5095530;28;20449;-63
2023/02/22 03:36:12;;;;;;;20.77;3.90;;;8.20;1.00;;;;;;5096008;28;20448;-64
2023/02/22 03:38:40;;;;;;;18.07;4.77;;;8.30;1.00;;;;;;5095775;28;20498;-62
2023/02/22 03:41:09;;;;;;;16.03;3.90;;;8.20;1.00;;;;;;5095603;28;20534;-63
2023/02/22 03:43:39;;;;;;;20.67;3.77;;;8.10;99.90;;;;;;5095146;28;20485;-62
2023/02/22 03:46:09;;;;;;;17.60;4.70;;;8.10;99.90;;;;;;5095542;28;20442;-62
2023/02/22 03:48:42;;;;;;;13.97;4.10;;;8.20;1.00;;;;;;5095423;28;20491;-62
2023/02/22 03:51:13;;;;;;;11.10;3.63;;;8.20;1.00;;;;;;5095526;28;20815;-63
2023/02/22 03:53:42;;;;;;;17.97;3.90;;;8.30;1.00;;;;;;5095204;28;20459;-62
2023/02/22 03:56:11;;;;;;;14.97;4.27;;;8.30;1.00;;;;;;5095414;28;20812;-63
2023/02/22 03:58:42;;;;;;;19.43;4.20;;;8.40;1.00;;;;;;5095999;28;20459;-63
2023/02/22 04:01:09;;;;;;;21.03;4.53;;;8.40;99.90;;;;;;5094910;28;20768;-62
2023/02/22 04:03:36;;;;;;;11.27;4.10;;;8.40;1.00;;;;;;5095185;28;21023;-62
2023/02/22 04:06:04;;;;;;;16.90;4.30;;;8.60;99.90;;;;;;5094984;28;20548;-62
2023/02/22 04:08:32;;;;;;;13.50;3.60;;;8.60;1.00;;;;;;5094863;28;20461;-62
2023/02/22 04:11:00;;;;;;;16.40;3.80;;;8.60;1.00;;;;;;5094546;28;20492;-64
2023/02/22 04:13:27;;;;;;;13.20;4.40;;;8.50;1.00;;;;;;5094727;28;20457;-62
2023/02/22 04:15:54;;;;;;;16.03;4.80;;;8.40;99.90;;;;;;5095065;28;20458;-62
2023/02/22 04:18:21;;;;;;;15.60;4.30;;;8.30;99.90;;;;;;5095114;28;20464;-63
2023/02/22 04:20:47;;;;;;;15.03;4.30;;;8.20;1.00;;;;;;5094887;28;20544;-61
2023/02/22 04:23:15;;;;;;;16.20;4.03;;;8.30;32.20;;;;;;5095115;28;20459;-63
2023/02/22 04:25:44;;;;;;;13.00;3.80;;;8.40;1.00;;;;;;5095108;28;20531;-63
2023/02/22 04:28:11;;;;;;;14.70;3.97;;;8.50;1.00;;;;;;5094817;28;20453;-63
2023/02/22 04:30:38;;;;;;;20.57;4.33;;;8.50;99.90;;;;;;5094672;28;20481;-62
2023/02/22 04:33:04;;;;;;;21.87;4.87;;;8.60;99.90;;;;;;5094872;28;20464;-63
2023/02/22 04:35:31;;;;;;;16.30;3.70;;;8.50;99.90;;;;;;5094992;28;20577;-62
2023/02/22 04:37:58;;;;;;;15.60;3.70;;;8.40;1.00;;;;;;5094591;28;20501;-62
2023/02/22 04:40:25;;;;;;;15.03;4.30;;;8.40;1.00;;;;;;5094936;28;20549;-63
2023/02/22 04:42:53;;;;;;;19.27;4.90;;;8.30;99.90;;;;;;5094628;28;20525;-63
2023/02/22 04:45:20;;;;;;;16.43;4.10;;;8.30;1.00;;;;;;5093963;28;20458;-62
2023/02/22 04:47:47;;;;;;;25.53;6.37;;;8.30;1.00;;;;;;5074481;28;20536;-62
2023/02/22 04:50:15;;;;;;;14.10;3.90;;;8.20;1.00;;;;;;5074068;28;20512;-62
2023/02/22 04:52:42;;;;;;;15.67;4.67;;;8.10;99.90;;;;;;5074392;28;20454;-62
2023/02/22 04:55:10;;;;;;;17.43;4.07;;;8.00;1.00;;;;;;5074150;28;20476;-62
2023/02/22 04:57:38;;;;;;;15.90;4.07;;;8.00;38.60;;;;;;5074050;28;20468;-62
2023/02/22 05:00:09;;;;;;;20.13;4.50;;;7.90;99.90;;;;;;5074034;28;20454;-63
2023/02/22 05:02:37;;;;;;;27.47;5.67;;;7.90;99.90;;;;;;5074540;28;20438;-63
2023/02/22 05:05:04;;;;;;;14.93;4.40;;;7.80;99.90;;;;;;5074329;28;20470;-63
2023/02/22 05:07:31;;;;;;;18.30;3.90;;;7.80;1.00;;;;;;5074321;28;20468;-63
2023/02/22 05:09:58;;;;;;;14.37;4.53;;;7.80;1.00;;;;;;5074400;28;20482;-62
2023/02/22 05:12:27;;;;;;;10.53;3.83;;;7.90;1.00;;;;;;5074378;28;20881;-62
2023/02/22 05:14:54;;;;;;;19.93;4.53;;;7.80;1.00;;;;;;5074226;28;20454;-64
2023/02/22 05:17:22;;;;;;;15.00;3.90;;;7.90;1.00;;;;;;5074436;28;20549;-63
2023/02/22 05:19:49;;;;;;;12.27;4.00;;;8.00;1.00;;;;;;5074117;28;20451;-63
2023/02/22 05:22:16;;;;;;;18.93;4.73;;;8.10;1.00;;;;;;5077005;28;20464;-63
2023/02/22 05:24:43;;;;;;;18.17;5.20;;;8.00;1.00;;;;;;5078620;28;20458;-63
2023/02/22 05:27:10;;;;;;;14.90;4.33;;;7.90;1.00;;;;;;5098188;28;20913;-63
2023/02/22 05:29:37;;;;;;;17.10;4.67;;;8.00;1.00;;;;;;5088518;28;20980;-63
2023/02/22 05:32:06;;;;;;;25.80;5.40;;;8.20;1.00;;;;;;5078470;28;20477;-64
2023/02/22 05:34:34;;;;;;;18.93;4.77;;;8.20;1.00;;;;;;5077638;28;20454;-63
2023/02/22 05:37:02;;;;;;;15.27;5.93;;;8.30;99.90;;;;;;5077473;28;20464;-63
2023/02/22 05:39:29;;;;;;;19.30;5.87;;;8.20;99.90;;;;;;5077972;28;20476;-63
2023/02/22 05:41:56;;;;;;;19.60;4.40;;;8.10;99.90;;;;;;5077224;28;20492;-63
2023/02/22 05:44:22;;;;;;;12.17;4.33;;;8.00;1.00;;;;;;5077001;28;20442;-63
2023/02/22 05:46:49;;;;;;;27.33;5.77;;;8.10;1.00;;;;;;5077332;28;20469;-63
2023/02/22 05:49:16;;;;;;;14.60;4.70;;;8.10;1.00;;;;;;5077672;28;20478;-63
2023/02/22 05:51:44;;;;;;;13.03;4.60;;;8.10;1.00;;;;;;5077501;28;20545;-63
2023/02/22 05:54:11;;;;;;;15.20;5.30;;;8.00;1.00;;;;;;5077183;28;20465;-62
2023/02/22 05:56:38;;;;;;;17.13;4.50;;;8.00;1.00;;;;;;5076951;28;20520;-63
2023/02/22 05:59:05;;;;;;;17.63;4.40;;;8.00;1.00;;;;;;5076994;28;20788;-63
2023/02/22 06:01:32;;;;;;;11.63;3.87;;;8.10;1.00;;;;;;5076750;28;20472;-64
2023/02/22 06:03:58;;;;;;;21.93;4.50;;;8.10;1.00;;;;;;5076865;28;20464;-68
2023/02/22 06:06:25;;;;;;;11.43;4.90;;;8.20;1.00;;;;;;5076960;28;20537;-66
2023/02/22 06:08:53;;;;;;;21.33;5.27;;;8.20;1.00;;;;;;5076371;28;20458;-66
2023/02/22 06:11:20;;;;;;;20.57;5.07;;;8.20;1.00;;;;;;5076540;28;20549;-66
2023/02/22 06:13:51;;;;;;;19.37;5.30;;;8.10;1.00;;;;;;5076740;28;20454;-67
2023/02/22 06:16:18;;;;;;;12.50;4.80;;;8.00;1.00;;;;;;5076362;28;20443;-67
2023/02/22 06:18:45;;;;;;;17.10;6.17;;;8.10;1.00;;;;;;5076033;28;20497;-67
2023/02/22 06:21:12;;;;;;;26.40;7.50;;;8.20;1.00;;;;;;5076257;28;20902;-67
2023/02/22 06:23:38;;;;;;;14.90;5.23;;;8.10;1.00;;;;;;5076378;28;20464;-67
2023/02/22 06:26:07;;;;;;;13.87;4.57;;;8.10;1.00;;;;;;5076444;28;20771;-67
2023/02/22 06:28:34;;;;;;;12.27;4.27;;;8.10;1.00;;;;;;5076292;28;20465;-67
2023/02/22 06:31:00;;;;;;;14.77;5.37;;;8.20;1.00;;;;;;5076288;28;20800;-67
2023/02/22 06:33:27;;;;;;;21.70;5.57;;;8.20;1.00;;;;;;5075454;28;20458;-67
2023/02/22 06:35:54;;;;;;;21.70;6.70;;;8.20;1.00;;;;;;5076362;28;20490;-67
2023/02/22 06:38:22;;;;;;;15.37;6.23;;;8.10;1.00;;;;;;5076037;28;20454;-67
2023/02/22 06:40:49;;;;;;;23.43;6.10;;;8.20;1.00;;;;;;5076336;28;20474;-67
2023/02/22 06:43:17;;;;;;;17.00;5.90;;;8.20;1.00;;;;;;5075733;28;20496;-67
2023/02/22 06:45:44;;;;;;;22.90;6.17;;;8.10;1.00;;;;;;5076517;28;20454;-67
2023/02/22 06:48:11;;;;;;;15.23;5.93;;;8.10;1.00;;;;;;5076094;28;20458;-67
2023/02/22 06:50:37;;;;;;;14.57;6.47;;;8.20;1.00;;;;;;5075843;28;20492;-67
2023/02/22 06:53:05;;;;;;;26.80;6.77;;;8.20;1.00;;;;;;5076269;28;20794;-67
2023/02/22 06:55:33;;;;;;;21.40;6.27;;;8.20;1.00;;;;;;5076029;28;20739;-67
2023/02/22 06:58:01;;;;;;;20.83;5.80;;;8.30;1.00;;;;;;5075788;28;20482;-67
2023/02/22 07:00:30;;;;;;;17.83;5.77;;;8.40;1.00;;;;;;5075670;28;20461;-67
2023/02/22 07:02:58;;;;;;;22.03;6.57;;;8.40;99.90;;;;;;5075620;28;20958;-67
2023/02/22 07:05:26;;;;;;;15.73;6.43;;;8.30;99.90;;;;;;5075246;28;20458;-67
2023/02/22 07:07:55;;;;;;;24.27;7.10;;;8.40;99.90;;;;;;5075483;28;20458;-67
2023/02/22 07:10:24;;;;;;;15.77;4.97;;;8.40;99.90;;;;;;5074833;28;20488;-67
2023/02/22 07:12:52;;;;;;;25.40;5.90;;;8.40;99.90;;;;;;5075195;28;20454;-67
2023/02/22 07:15:20;;;;;;;21.90;7.37;;;8.50;1.00;;;;;;5075211;28;20489;-67
2023/02/22 07:17:48;;;;;;;23.23;7.40;;;8.40;1.00;;;;;;5074988;28;20565;-67
2023/02/22 07:20:16;;;;;;;30.83;7.13;;;8.50;1.00;;;;;;5074847;28;20454;-67
2023/02/22 07:22:43;;;;;;;26.53;7.03;;;8.40;1.00;;;;;;5075318;28;20464;-68
2023/02/22 07:25:11;;;;;;;26.03;6.30;;;8.40;99.90;;;;;;5075085;28;20588;-67
2023/02/22 07:27:38;;;;;;;21.90;7.30;;;8.40;1.00;;;;;;5074807;28;20462;-67
2023/02/22 07:30:06;;;;;;;23.80;8.37;;;8.40;1.00;;;;;;5074990;28;20535;-67
2023/02/22 07:32:33;;;;;;;28.40;7.10;;;8.40;99.90;;;;;;5075215;28;20561;-67
2023/02/22 07:35:01;;;;;;;19.83;5.70;;;8.40;1.00;;;;;;5075064;28;20939;-67
2023/02/22 07:37:29;;;;;;;32.70;6.97;;;8.40;1.00;;;;;;5074772;28;20463;-67
2023/02/22 07:39:55;;;;;;;14.10;5.37;;;8.50;99.90;;;;;;5074894;28;20460;-67
2023/02/22 07:42:22;;;;;;;28.30;7.00;;;8.50;99.90;;;;;;5074634;28;20772;-67
2023/02/22 07:44:49;;;;;;;17.47;6.00;;;8.50;3.30;;;;;;5074394;28;20454;-67
2023/02/22 07:47:16;;;;;;;24.73;5.83;;;8.60;1.00;;;;;;5074488;28;20454;-67
2023/02/22 07:49:43;;;;;;;24.20;6.63;;;8.60;99.90;;;;;;5074878;28;20488;-67
2023/02/22 07:52:11;;;;;;;18.90;5.97;;;8.60;1.00;;;;;;5074945;28;20505;-66
2023/02/22 07:54:38;;;;;;;23.67;6.60;;;8.70;1.00;;;;;;5074630;28;20466;-68
2023/02/22 07:57:05;;;;;;;24.63;7.20;;;8.70;1.00;;;;;;5074821;28;20486;-68
2023/02/22 07:59:32;;;;;;;19.83;6.90;;;8.60;99.90;;;;;;5074970;28;20930;-67
2023/02/22 08:01:59;;;;;;;24.87;7.87;;;8.60;99.90;;;;;;5074727;28;20458;-66
2023/02/22 08:04:26;;;;;;;17.87;6.90;;;8.60;1.00;;;;;;5074509;28;20454;-67
2023/02/22 08:06:53;;;;;;;26.10;7.17;;;8.60;1.00;;;;;;5074120;28;20957;-66
2023/02/22 08:09:22;;;;;;;23.87;7.07;;;8.60;99.90;;;;;;5074864;28;20465;-67
2023/02/22 08:11:49;;;;;;;18.00;7.20;;;8.60;56.20;;;;;;5074053;28;20485;-67
2023/02/22 08:14:16;;;;;;;14.13;6.13;;;8.60;1.00;;;;;;5074598;28;20491;-67
2023/02/22 08:16:43;;;;;;;28.43;6.60;;;8.60;1.00;;;;;;5074197;28;20933;-62
2023/02/22 08:19:10;;;;;;;24.10;8.17;;;8.60;1.00;;;;;;5074589;28;20513;-62
2023/02/22 08:21:37;;;;;;;19.50;6.73;;;8.60;1.00;;;;;;5075123;28;20870;-62
2023/02/22 08:24:04;;;;;;;20.20;6.83;;;8.50;1.00;;;;;;5074469;28;20793;-62
2023/02/22 08:26:32;;;;;;;21.50;7.00;;;8.60;1.00;;;;;;5074133;28;20464;-63
2023/02/22 08:28:59;;;;;;;19.27;7.33;;;8.70;1.00;;;;;;5074005;28;20450;-67
2023/02/22 08:31:26;;;;;;;37.00;5.53;;;8.80;1.00;;;;;;5073809;28;20478;-62
2023/02/22 08:33:52;;;;;;;20.40;6.13;;;8.80;99.90;;;;;;5074310;28;20464;-62
2023/02/22 08:36:20;;;;;;;24.03;6.87;;;8.90;99.90;;;;;;5074199;28;20458;-62
2023/02/22 08:38:46;;;;;;;17.93;5.70;;;8.90;1.00;;;;;;5074075;28;20470;-62
2023/02/22 08:41:13;;;;;;;18.40;5.57;;;9.00;1.00;;;;;;5073764;28;20860;-62
2023/02/22 08:46:18;;;;;;;21.57;5.50;;;9.00;1.00;;;;;;5220349;22;20606;-68
2023/02/22 08:48:50;;;;;;;12.97;4.87;;;9.00;1.00;;;;;;5034242;28;20455;-67
2023/02/22 08:51:17;;;;;;;12.30;4.40;;;9.10;1.00;;;;;;5033778;28;20503;-67
2023/02/22 08:53:43;;;;;;;23.30;7.33;;;9.20;1.00;;;;;;5034586;28;20616;-68
2023/02/22 08:56:11;;;;;;;23.77;5.67;;;9.30;1.00;;;;;;5036456;28;20490;-68
2023/02/22 08:58:38;;;;;;;16.90;5.30;;;9.40;1.00;;;;;;5038185;28;20555;-68
2023/02/22 09:01:05;;;;;;;15.13;4.87;;;9.50;99.90;;;;;;5037849;28;20946;-68
2023/02/22 09:03:33;;;;;;;16.20;5.47;;;9.70;99.90;;;;;;5037779;28;20529;-68
2023/02/22 09:06:00;;;;;;;22.57;4.90;;;9.80;99.90;;;;;;5036397;28;21058;-68
2023/02/22 09:08:27;;;;;;;12.57;4.63;;;9.70;1.00;;;;;;5038163;28;20468;-67
2023/02/22 09:10:54;;;;;;;19.50;5.70;;;9.60;1.00;;;;;;5038045;28;20490;-67
2023/02/22 09:13:21;;;;;;;9.90;4.23;;;9.60;1.00;;;;;;5038097;28;20459;-68
2023/02/22 09:15:47;;;;;;;13.90;5.83;;;9.70;99.90;;;;;;5032618;28;20456;-67
2023/02/22 09:18:16;;;;;;;16.70;6.57;;;9.70;1.00;;;;;;5017748;28;20493;-68
2023/02/22 09:20:45;;;;;;;12.13;4.73;;;9.70;1.00;;;;;;5018525;28;20457;-68
2023/02/22 09:23:13;;;;;;;25.97;5.63;;;9.70;31.80;;;;;;5017906;28;20499;-68
2023/02/22 09:25:40;;;;;;;16.77;5.17;;;9.80;1.00;;;;;;5017824;28;20487;-68
2023/02/22 09:28:08;;;;;;;27.53;5.83;;;9.70;1.00;;;;;;5017996;28;20821;-67
2023/02/22 09:30:36;;;;;;;12.60;5.07;;;9.70;1.40;;;;;;5017612;28;20974;-67
2023/02/22 09:33:05;;;;;;;19.07;5.40;;;9.70;1.00;;;;;;5017714;28;20533;-68
2023/02/22 09:35:34;;;;;;;16.13;5.47;;;9.70;1.00;;;;;;5017362;28;20518;-68
2023/02/22 09:38:05;;;;;;;16.93;4.43;;;9.70;1.00;;;;;;5017484;28;20465;-67
2023/02/22 09:40:39;;;;;;;13.77;4.63;;;9.70;1.00;;;;;;5017518;28;20450;-67
2023/02/22 09:43:15;;;;;;;16.43;4.50;;;9.80;1.00;;;;;;5017674;28;20440;-68
2023/02/22 09:45:55;;;;;;;14.17;4.23;;;9.70;1.00;;;;;;5017364;28;20510;-68
2023/02/22 09:48:24;;;;;;;18.33;5.43;;;9.80;1.00;;;;;;5017494;28;20445;-67
2023/02/22 09:50:53;;;;;;;12.10;4.00;;;9.80;1.00;;;;;;5017273;28;20481;-68
2023/02/22 09:53:28;;;;;;;10.23;4.27;;;9.80;1.00;;;;;;5017387;28;20787;-67
2023/02/22 09:55:59;;;;;;;17.90;4.93;;;10.00;1.00;;;;;;5017182;28;20441;-67
2023/02/22 09:58:32;;;;;;;17.83;4.90;;;10.20;1.00;;;;;;5017063;28;20457;-67
2023/02/22 10:01:15;;;;;;;18.07;4.60;;;10.30;1.00;;;;;;5017353;28;20441;-67
2023/02/22 10:03:53;;;;;;;12.77;4.70;;;10.40;1.00;;;;;;5017214;28;20536;-68
2023/02/22 10:06:23;;;;;;;18.17;5.43;;;10.40;1.00;;;;;;5017194;28;20449;-68
2023/02/22 10:08:55;;;;;;;20.40;6.70;;;10.60;1.00;;;;;;5016285;28;20460;-68
2023/02/22 10:11:37;;;;;;;13.30;4.10;;;10.60;1.00;;;;;;5016954;28;20509;-67
2023/02/22 10:14:19;;;;;;;18.20;5.20;;;10.60;1.00;;;;;;5017757;28;20434;-68
2023/02/22 10:16:58;;;;;;;17.27;4.23;;;10.60;1.00;;;;;;5017323;28;20446;-68
2023/02/22 10:19:32;;;;;;;15.07;5.00;;;10.60;1.00;;;;;;5017309;28;20492;-67
2023/02/22 10:22:27;;;;;;;19.70;6.30;;;10.90;1.00;;;;;;5016803;28;20437;-67
2023/02/22 10:24:59;;;;;;;20.40;7.37;;;10.90;99.90;;;;;;5016601;28;20796;-67
2023/02/22 10:27:32;;;;;;;17.53;6.07;;;11.00;99.90;;;;;;5016474;28;20913;-67
2023/02/22 10:30:07;;;;;;;18.60;6.77;;;11.10;99.90;;;;;;5016906;28;20536;-67
2023/02/22 10:32:44;;;;;;;15.87;5.43;;;11.10;99.90;;;;;;5016490;28;20479;-67
2023/02/22 10:35:20;;;;;;;16.47;5.73;;;11.00;99.90;;;;;;5016894;28;20540;-67
2023/02/22 10:37:48;;;;;;;12.27;5.03;;;11.20;99.90;;;;;;5016660;28;20445;-67
2023/02/22 10:40:21;;;;;;;16.87;4.80;;;11.20;99.90;;;;;;5016402;28;20552;-68
2023/02/22 10:42:48;;;;;;;18.77;5.50;;;11.40;99.90;;;;;;5016559;28;20463;-67
2023/02/22 10:45:22;;;;;;;13.83;4.40;;;11.60;99.90;;;;;;5019528;28;20511;-68
2023/02/22 10:47:50;;;;;;;14.20;4.50;;;11.80;99.90;;;;;;5038122;28;20773;-68
2023/02/22 10:50:19;;;;;;;15.37;5.00;;;11.60;99.90;;;;;;5035706;28;20920;-68
2023/02/22 10:52:46;;;;;;;12.80;4.10;;;11.50;99.90;;;;;;5036086;28;20456;-68
2023/02/22 10:55:15;;;;;;;19.20;4.53;;;11.40;99.90;;;;;;5035900;28;20805;-68
2023/02/22 10:57:46;;;;;;;15.73;5.37;;;11.20;99.90;;;;;;5035760;28;20569;-67
2023/02/22 11:00:18;;;;;;;14.77;3.93;;;11.20;99.90;;;;;;5035972;28;20445;-68
2023/02/22 11:02:55;;;;;;;11.80;3.57;;;11.10;99.90;;;;;;5035746;28;20495;-67
2023/02/22 11:05:31;;;;;;;16.87;3.60;;;11.00;99.90;;;;;;5035531;28;20444;-68
2023/02/22 11:08:23;;;;;;;16.03;3.70;;;10.80;99.90;;;;;;5035512;28;20448;-68
2023/02/22 11:10:52;;;;;;;15.00;3.90;;;10.80;99.90;;;;;;5035770;28;20494;-67
2023/02/22 11:13:25;;;;;;;23.37;8.20;;;10.60;99.90;;;;;;5035524;28;20793;-68
2023/02/22 11:15:52;;;;;;;9.53;3.17;;;10.60;99.90;;;;;;5035550;28;20753;-67
2023/02/22 11:18:27;;;;;;;15.43;3.70;;;10.80;99.90;;;;;;5035252;28;20488;-68
2023/02/22 11:21:06;;;;;;;11.23;3.77;;;11.00;99.90;;;;;;5035326;28;20734;-67
2023/02/22 11:23:34;;;;;;;12.80;4.37;;;11.00;99.90;;;;;;5035278;28;20901;-67
2023/02/22 11:26:05;;;;;;;12.13;2.90;;;11.00;99.90;;;;;;5034956;28;20460;-69
2023/02/22 11:28:34;;;;;;;10.57;3.47;;;11.10;99.90;;;;;;5034718;28;20912;-66
2023/02/22 11:31:12;;;;;;;15.20;3.87;;;11.10;99.90;;;;;;5034680;28;20492;-67
2023/02/22 11:33:39;;;;;;;10.80;4.13;;;11.20;99.90;;;;;;5034700;28;20455;-67
2023/02/22 11:36:09;;;;;;;15.77;3.93;;;11.20;99.90;;;;;;5034909;28;20460;-69
2023/02/22 11:38:36;;;;;;;15.30;4.50;;;10.90;99.90;;;;;;5034794;28;20456;-67
2023/02/22 11:41:14;;;;;;;14.73;3.87;;;11.00;99.90;;;;;;5034688;28;20518;-68
2023/02/22 11:43:42;;;;;;;14.50;3.70;;;11.00;99.90;;;;;;5035031;28;20444;-67
2023/02/22 11:46:13;;;;;;;19.60;3.63;;;11.00;99.90;;;;;;5034338;28;20490;-67
2023/02/22 11:48:47;;;;;;;9.00;3.93;;;11.10;99.90;;;;;;5034732;28;20471;-67
2023/02/22 11:51:26;;;;;;;9.00;3.93;;;11.00;99.90;;;;;;5034504;28;20464;-67
2023/02/22 11:54:18;;;;;;;18.60;4.90;;;10.90;99.90;;;;;;5034590;28;20846;-68
2023/02/22 11:56:48;;;;;;;15.87;4.90;;;10.90;99.90;;;;;;5035073;28;20451;-67
2023/02/22 11:59:29;;;;;;;14.73;5.13;;;10.90;99.90;;;;;;5034876;28;20452;-67
2023/02/22 12:01:58;;;;;;;10.97;4.30;;;10.90;99.90;;;;;;5034554;28;20932;-68
2023/02/22 12:05:06;;;;;;;13.63;3.60;;;10.90;99.90;;;;;;5035020;28;20525;-66
2023/02/22 12:07:44;;;;;;;7.80;3.40;;;10.70;99.90;;;;;;4996546;28;20877;-68
2023/02/22 12:10:25;;;;;;;9.53;3.43;;;10.80;99.90;;;;;;5034374;28;20924;-68
2023/02/22 12:13:08;;;;;;;18.63;3.90;;;10.90;99.90;;;;;;5034388;28;20478;-68
2023/02/22 12:15:42;;;;;;;15.00;3.13;;;10.90;99.90;;;;;;5033985;28;20921;-67
2023/02/22 12:18:17;;;;;;;5.33;3.33;;;11.00;99.90;;;;;;5034430;28;20455;-68
2023/02/22 12:20:46;;;;;;;18.90;4.50;;;11.20;99.90;;;;;;5034457;28;20440;-67
2023/02/22 12:23:19;;;;;;;16.27;3.73;;;11.30;99.90;;;;;;5034414;28;20451;-68
2023/02/22 12:25:57;;;;;;;15.70;4.03;;;11.20;99.90;;;;;;5033870;28;20451;-68
2023/02/22 12:28:32;;;;;;;14.17;3.60;;;10.90;99.90;;;;;;5034764;28;20440;-68
2023/02/22 12:31:11;;;;;;;17.47;4.37;;;11.00;99.90;;;;;;5035797;28;20440;-67
2023/02/22 12:33:47;;;;;;;13.03;3.50;;;11.00;99.90;;;;;;5038501;28;20518;-68
2023/02/22 12:36:17;;;;;;;9.20;3.80;;;10.90;99.90;;;;;;5038475;28;20494;-68
2023/02/22 12:38:50;;;;;;;16.87;5.03;;;10.90;99.90;;;;;;5038316;28;20451;-69
2023/02/22 12:41:25;;;;;;;20.53;3.57;;;11.00;99.90;;;;;;5038459;28;20447;-68
2023/02/22 12:43:56;;;;;;;10.17;3.60;;;11.20;99.90;;;;;;5038458;28;20517;-68
2023/02/22 12:46:29;;;;;;;15.07;3.53;;;11.20;99.90;;;;;;5037784;28;20490;-68
2023/02/22 12:49:04;;;;;;;14.43;3.87;;;11.20;99.90;;;;;;5037961;28;20510;-68
2023/02/22 12:51:40;;;;;;;13.90;4.03;;;11.00;99.90;;;;;;5038223;28;20467;-68
2023/02/22 12:54:12;;;;;;;13.70;3.77;;;11.10;99.90;;;;;;5038097;28;20514;-67
2023/02/22 12:56:43;;;;;;;17.27;3.90;;;11.10;99.90;;;;;;5038630;28;20446;-68
2023/02/22 12:59:18;;;;;;;16.47;4.00;;;11.10;99.90;;;;;;5038069;28;20458;-68
2023/02/22 13:01:52;;;;;;;12.47;2.60;;;11.00;99.90;;;;;;5038068;28;20440;-68
2023/02/22 13:04:19;;;;;;;13.43;3.77;;;11.20;99.90;;;;;;5038009;28;20443;-69
2023/02/22 13:06:58;;;;;;;13.80;2.83;;;11.40;99.90;;;;;;5037969;28;20466;-68
2023/02/22 13:09:51;;;;;;;9.13;3.00;;;11.40;99.90;;;;;;5037796;28;20443;-69